Time;durP1;ratioP1;P1;durP2;ratioP2;P2;SDS_P1;SDS_P2;PMS_P1;PMS_P2;Temp;Humidity;BMP_temperature;BMP_pressure;BME280_temperature;BME280_humidity;BME280_pressure;Samples;Min_cycle;Max_cycle;Signal;HPM_P1;HPM_P2
2020/12/20 00:01:21;;;;;;;3.78;2.75;;;11.30;99.90;;;;;;5056037;28;20057;-63
2020/12/20 00:03:48;;;;;;;3.92;3.05;;;11.30;99.90;;;;;;5056013;28;20450;-63
2020/12/20 00:06:18;;;;;;;5.10;2.97;;;11.30;99.90;;;;;;5055896;28;20049;-64
2020/12/20 00:08:46;;;;;;;5.38;3.05;;;11.20;99.90;;;;;;5056008;28;20080;-63
2020/12/20 00:11:13;;;;;;;6.03;3.10;;;11.20;99.90;;;;;;5061698;28;20079;-63
2020/12/20 00:13:39;;;;;;;5.13;3.10;;;11.20;99.90;;;;;;5075904;28;20129;-63
2020/12/20 00:16:06;;;;;;;3.90;2.85;;;11.10;99.90;;;;;;5075844;28;20052;-63
2020/12/20 00:18:33;;;;;;;4.95;3.20;;;11.10;99.90;;;;;;5075615;28;20045;-63
2020/12/20 00:20:59;;;;;;;5.63;3.08;;;11.10;99.90;;;;;;5075562;28;20080;-63
2020/12/20 00:23:26;;;;;;;6.03;2.80;;;11.20;99.90;;;;;;5075183;28;20103;-63
2020/12/20 00:25:53;;;;;;;4.05;2.80;;;11.10;99.90;;;;;;5074856;28;20102;-63
2020/12/20 00:28:20;;;;;;;4.57;3.10;;;11.20;99.90;;;;;;5075529;28;20149;-63
2020/12/20 00:30:47;;;;;;;5.45;3.17;;;11.30;99.90;;;;;;5075421;28;20044;-63
2020/12/20 00:33:13;;;;;;;3.95;2.53;;;11.20;99.90;;;;;;5075156;28;20106;-63
2020/12/20 00:35:40;;;;;;;5.25;3.30;;;11.20;99.90;;;;;;5075610;28;20451;-63
2020/12/20 00:38:06;;;;;;;4.35;2.58;;;11.20;99.90;;;;;;5075124;28;20098;-63
2020/12/20 00:40:34;;;;;;;3.50;2.75;;;11.20;99.90;;;;;;5062552;28;20497;-63
2020/12/20 00:43:00;;;;;;;4.72;3.30;;;11.30;99.90;;;;;;5054939;28;20053;-63
2020/12/20 00:45:27;;;;;;;4.50;3.10;;;11.30;99.90;;;;;;5055134;28;20057;-63
2020/12/20 00:47:54;;;;;;;3.75;2.80;;;11.40;99.90;;;;;;5055011;28;20107;-63
2020/12/20 00:50:20;;;;;;;5.68;2.70;;;11.40;99.90;;;;;;5061973;28;20087;-63
2020/12/20 00:52:47;;;;;;;5.07;2.90;;;11.30;99.90;;;;;;5075225;28;20496;-63
2020/12/20 00:55:16;;;;;;;4.43;2.55;;;11.40;99.90;;;;;;5062411;28;20051;-63
2020/12/20 00:57:44;;;;;;;4.03;3.03;;;11.40;99.90;;;;;;5054789;28;20049;-64
2020/12/20 01:00:11;;;;;;;5.15;2.70;;;11.40;99.90;;;;;;5054999;28;20052;-63
2020/12/20 01:02:41;;;;;;;3.63;2.45;;;11.50;99.90;;;;;;5054606;28;20056;-63
2020/12/20 01:05:11;;;;;;;7.60;3.05;;;11.40;99.90;;;;;;5055634;28;20470;-63
2020/12/20 01:07:38;;;;;;;3.75;2.50;;;11.50;99.90;;;;;;5054932;28;20065;-63
2020/12/20 01:10:08;;;;;;;4.20;2.47;;;11.40;99.90;;;;;;5054935;28;20470;-63
2020/12/20 01:12:34;;;;;;;;;;;11.50;99.90;;;;;;5055386;28;20058;-63
2020/12/20 01:15:02;;;;;;;5.45;2.72;;;11.50;99.90;;;;;;5054481;28;20278;-63
2020/12/20 01:17:28;;;;;;;4.18;2.42;;;11.50;99.90;;;;;;5054696;28;20176;-63
2020/12/20 01:19:55;;;;;;;5.53;2.40;;;11.40;99.90;;;;;;5054755;28;20056;-63
2020/12/20 01:22:21;;;;;;;4.43;2.33;;;11.40;99.90;;;;;;5054755;28;20049;-63
2020/12/20 01:24:48;;;;;;;3.75;2.33;;;11.40;99.90;;;;;;5054425;28;20071;-63
2020/12/20 01:27:14;;;;;;;3.90;2.22;;;11.40;99.90;;;;;;5054454;28;20045;-63
2020/12/20 01:29:41;;;;;;;5.00;2.28;;;11.40;99.90;;;;;;5054551;28;20538;-63
2020/12/20 01:32:09;;;;;;;3.45;2.58;;;11.50;99.90;;;;;;5054928;28;20538;-63
2020/12/20 01:34:38;;;;;;;4.18;2.60;;;11.50;99.90;;;;;;5053956;28;20059;-63
2020/12/20 01:37:07;;;;;;;4.50;2.80;;;11.30;99.90;;;;;;5054033;28;20134;-63
2020/12/20 01:39:33;;;;;;;6.18;3.08;;;11.40;99.90;;;;;;5053874;28;20053;-63
2020/12/20 01:42:02;;;;;;;3.95;2.22;;;11.40;99.90;;;;;;5054238;28;20482;-63
2020/12/20 01:44:29;;;;;;;3.55;2.65;;;11.50;99.90;;;;;;5054188;28;20099;-62
2020/12/20 01:46:56;;;;;;;5.43;2.40;;;11.50;99.90;;;;;;5055374;28;20049;-63
2020/12/20 01:49:24;;;;;;;3.28;2.60;;;11.40;99.90;;;;;;5053613;28;20055;-64
2020/12/20 01:51:52;;;;;;;4.43;2.88;;;11.40;99.90;;;;;;5073190;28;20063;-63
2020/12/20 01:54:21;;;;;;;4.10;2.40;;;11.40;99.90;;;;;;5073195;28;20047;-63
2020/12/20 01:56:48;;;;;;;4.07;2.58;;;11.30;99.90;;;;;;5073816;28;20381;-63
2020/12/20 01:59:14;;;;;;;4.10;2.53;;;11.30;99.90;;;;;;5073681;28;20063;-63
2020/12/20 02:01:41;;;;;;;5.00;2.40;;;11.30;99.90;;;;;;5066457;28;20085;-63
2020/12/20 02:04:08;;;;;;;3.75;2.55;;;11.30;99.90;;;;;;5057490;28;20037;-63
2020/12/20 02:06:36;;;;;;;3.60;2.60;;;11.20;99.90;;;;;;5053326;28;20076;-63
2020/12/20 02:09:05;;;;;;;5.45;2.80;;;11.20;99.90;;;;;;5053971;28;20052;-63
2020/12/20 02:11:31;;;;;;;6.00;2.83;;;11.20;99.90;;;;;;5053425;28;20350;-63
2020/12/20 02:13:58;;;;;;;3.85;2.88;;;11.10;99.90;;;;;;5053509;28;20080;-64
2020/12/20 02:16:26;;;;;;;4.65;3.05;;;11.10;99.90;;;;;;5053741;28;20462;-63
2020/12/20 02:18:52;;;;;;;4.88;3.38;;;11.20;99.90;;;;;;5059867;28;20084;-63
2020/12/20 02:21:21;;;;;;;5.80;3.60;;;11.10;99.90;;;;;;5073462;28;20164;-63
2020/12/20 02:23:49;;;;;;;5.07;2.92;;;11.20;99.90;;;;;;5073298;28;20067;-63
2020/12/20 02:26:17;;;;;;;4.78;3.30;;;11.20;99.90;;;;;;5073113;28;20056;-63
2020/12/20 02:28:44;;;;;;;5.93;4.03;;;11.20;99.90;;;;;;5073017;28;20084;-63
2020/12/20 02:31:11;;;;;;;4.70;3.13;;;11.30;99.90;;;;;;5072924;28;20094;-63
2020/12/20 02:33:37;;;;;;;4.45;2.97;;;11.20;99.90;;;;;;5053337;28;20049;-63
2020/12/20 02:36:07;;;;;;;5.63;3.58;;;11.20;99.90;;;;;;5053060;28;20374;-63
2020/12/20 02:38:37;;;;;;;6.07;3.75;;;11.20;99.90;;;;;;5053253;28;20052;-63
2020/12/20 02:41:04;;;;;;;6.65;4.10;;;11.20;99.90;;;;;;5052826;28;20048;-63
2020/12/20 02:43:31;;;;;;;5.15;3.33;;;11.20;99.90;;;;;;5052826;28;20053;-63
2020/12/20 02:45:57;;;;;;;6.05;3.50;;;11.20;99.90;;;;;;5053365;28;20048;-63
2020/12/20 02:48:26;;;;;;;5.13;3.22;;;11.20;99.90;;;;;;5052910;28;20139;-63
2020/12/20 02:50:55;;;;;;;4.83;3.30;;;11.30;99.90;;;;;;5064171;28;20044;-63
2020/12/20 02:53:24;;;;;;;5.70;3.40;;;11.20;99.90;;;;;;5072895;28;20091;-63
2020/12/20 02:55:52;;;;;;;5.20;3.30;;;11.20;99.90;;;;;;5072780;28;20088;-63
2020/12/20 02:58:18;;;;;;;4.60;3.63;;;11.20;99.90;;;;;;5072792;28;20114;-63
2020/12/20 03:00:45;;;;;;;4.70;3.33;;;11.20;99.90;;;;;;5072355;28;20159;-63
2020/12/20 03:03:12;;;;;;;6.28;3.47;;;11.10;99.90;;;;;;5053196;28;20081;-63
2020/12/20 03:05:38;;;;;;;6.00;3.55;;;11.20;99.90;;;;;;5055302;28;20084;-63
2020/12/20 03:08:05;;;;;;;4.65;3.55;;;11.20;99.90;;;;;;5056884;28;20417;-63
2020/12/20 03:10:32;;;;;;;4.10;3.10;;;11.20;99.90;;;;;;5058208;28;20053;-63
2020/12/20 03:13:00;;;;;;;4.95;3.45;;;11.10;99.90;;;;;;5057043;28;20457;-63
2020/12/20 03:15:27;;;;;;;5.88;3.55;;;11.00;99.90;;;;;;5056888;28;20142;-63
2020/12/20 03:17:53;;;;;;;4.75;3.75;;;11.00;99.90;;;;;;5057109;28;20370;-63
2020/12/20 03:20:20;;;;;;;5.53;3.33;;;11.00;99.90;;;;;;5056527;28;20421;-63
2020/12/20 03:22:49;;;;;;;5.13;3.08;;;11.10;99.90;;;;;;5056447;28;20143;-63
2020/12/20 03:25:16;;;;;;;5.43;3.47;;;11.00;99.90;;;;;;5056721;28;20063;-63
2020/12/20 03:27:43;;;;;;;4.78;2.85;;;10.90;99.90;;;;;;5056539;28;20085;-63
2020/12/20 03:30:10;;;;;;;5.10;3.75;;;10.90;99.90;;;;;;5063446;28;20084;-63
2020/12/20 03:32:37;;;;;;;4.13;3.20;;;11.00;99.90;;;;;;5076582;28;20056;-63
2020/12/20 03:35:03;;;;;;;5.55;3.42;;;10.90;99.90;;;;;;5076333;28;20057;-63
2020/12/20 03:37:30;;;;;;;6.53;4.30;;;10.80;99.90;;;;;;5076214;28;20143;-63
2020/12/20 03:39:58;;;;;;;5.07;3.88;;;10.90;99.90;;;;;;5077004;28;20049;-63
2020/12/20 03:42:25;;;;;;;7.05;3.90;;;10.80;99.90;;;;;;5075996;28;20060;-63
2020/12/20 03:44:52;;;;;;;5.78;3.53;;;10.70;99.90;;;;;;5069376;28;20040;-63
2020/12/20 03:47:19;;;;;;;6.35;3.80;;;10.80;99.90;;;;;;5057027;28;20508;-63
2020/12/20 03:49:46;;;;;;;5.35;3.67;;;10.70;99.90;;;;;;5058729;28;20049;-63
2020/12/20 03:52:13;;;;;;;6.72;3.80;;;10.60;99.90;;;;;;5076354;28;20455;-63
2020/12/20 03:54:39;;;;;;;6.65;3.92;;;10.70;99.90;;;;;;5076098;28;20087;-63
2020/12/20 03:57:08;;;;;;;6.10;3.35;;;10.80;99.90;;;;;;5076190;28;20572;-63
2020/12/20 03:59:39;;;;;;;5.35;3.45;;;10.80;99.90;;;;;;5076214;28;20087;-64
2020/12/20 04:02:05;;;;;;;5.55;3.58;;;10.80;99.90;;;;;;5076159;28;20139;-63
2020/12/20 04:04:33;;;;;;;4.70;4.10;;;10.80;99.90;;;;;;5075626;28;20045;-63
2020/12/20 04:07:00;;;;;;;5.93;3.75;;;10.70;99.90;;;;;;5075865;28;20059;-63
2020/12/20 04:09:27;;;;;;;5.53;3.85;;;10.80;99.90;;;;;;5075786;28;20479;-63
2020/12/20 04:11:53;;;;;;;6.15;3.78;;;10.90;99.90;;;;;;5075833;28;20049;-63
2020/12/20 04:14:20;;;;;;;5.78;4.05;;;10.80;99.90;;;;;;5073513;28;20575;-63
2020/12/20 04:16:46;;;;;;;5.15;4.25;;;10.90;99.90;;;;;;5055177;28;20409;-63
2020/12/20 04:19:13;;;;;;;6.68;3.92;;;10.80;99.90;;;;;;5055808;28;20107;-63
2020/12/20 04:21:40;;;;;;;6.05;4.43;;;10.70;99.90;;;;;;5055758;28;20072;-63
2020/12/20 04:24:07;;;;;;;5.00;4.10;;;10.80;99.90;;;;;;5055633;28;20048;-63
2020/12/20 04:26:33;;;;;;;5.50;4.82;;;10.70;99.90;;;;;;5055598;28;20056;-63
2020/12/20 04:29:00;;;;;;;6.25;4.55;;;10.80;99.90;;;;;;5055850;28;20382;-63
2020/12/20 04:31:29;;;;;;;6.63;4.32;;;10.80;99.90;;;;;;5055207;28;20049;-63
2020/12/20 04:33:55;;;;;;;5.70;4.13;;;10.70;99.90;;;;;;5055095;28;20128;-63
2020/12/20 04:36:22;;;;;;;7.20;4.65;;;10.60;99.90;;;;;;5055292;28;20053;-63
2020/12/20 04:38:50;;;;;;;5.03;4.38;;;10.60;99.90;;;;;;5055499;28;20056;-63
2020/12/20 04:41:20;;;;;;;6.18;4.03;;;10.60;99.90;;;;;;5055260;28;20091;-63
2020/12/20 04:43:48;;;;;;;7.18;4.85;;;10.50;99.90;;;;;;5055926;28;20072;-63
2020/12/20 04:46:17;;;;;;;6.70;4.70;;;10.40;99.90;;;;;;5055080;28;20088;-63
2020/12/20 04:48:44;;;;;;;6.07;4.85;;;10.30;99.90;;;;;;5055197;28;20505;-63
2020/12/20 04:51:12;;;;;;;5.55;4.57;;;10.30;99.90;;;;;;5069079;28;20060;-63
2020/12/20 04:53:38;;;;;;;5.82;4.35;;;10.30;99.90;;;;;;5074818;28;20079;-63
2020/12/20 04:56:09;;;;;;;6.90;4.75;;;10.30;99.90;;;;;;5074881;28;20088;-63
2020/12/20 04:58:36;;;;;;;5.85;4.28;;;10.30;99.90;;;;;;5071820;28;20489;-63
2020/12/20 05:01:04;;;;;;;5.90;4.10;;;10.40;99.90;;;;;;5055025;28;20457;-63
2020/12/20 05:03:30;;;;;;;6.38;4.80;;;10.40;99.90;;;;;;5054499;28;20085;-63
2020/12/20 05:05:57;;;;;;;6.47;4.38;;;10.40;99.90;;;;;;5054779;28;20044;-63
2020/12/20 05:08:25;;;;;;;7.05;4.57;;;10.40;99.90;;;;;;5054783;28;20057;-63
2020/12/20 05:10:53;;;;;;;6.05;4.60;;;10.40;99.90;;;;;;5054646;28;20048;-63
2020/12/20 05:13:21;;;;;;;6.57;4.55;;;10.40;99.90;;;;;;5055293;28;20092;-63
2020/12/20 05:15:48;;;;;;;7.63;4.95;;;10.30;99.90;;;;;;5054865;28;20045;-63
2020/12/20 05:18:16;;;;;;;7.60;4.82;;;10.40;99.90;;;;;;5054429;28;20099;-63
2020/12/20 05:20:44;;;;;;;5.80;4.63;;;10.40;99.90;;;;;;5054790;28;20429;-63
2020/12/20 05:23:12;;;;;;;6.22;4.32;;;10.40;99.90;;;;;;5054444;28;20049;-63
2020/12/20 05:25:40;;;;;;;8.52;4.75;;;10.40;99.90;;;;;;5054044;28;20060;-63
2020/12/20 05:28:09;;;;;;;6.68;4.95;;;10.30;99.90;;;;;;5056586;28;20472;-63
2020/12/20 05:30:36;;;;;;;5.95;4.78;;;10.40;99.90;;;;;;5074062;28;20083;-63
2020/12/20 05:33:04;;;;;;;8.13;5.03;;;10.40;99.90;;;;;;5074085;28;20107;-63
2020/12/20 05:35:31;;;;;;;5.68;5.05;;;10.40;99.90;;;;;;5074353;28;20110;-63
2020/12/20 05:37:57;;;;;;;6.85;5.05;;;10.50;99.90;;;;;;5074048;28;20048;-63
2020/12/20 05:40:27;;;;;;;6.65;5.00;;;10.40;99.90;;;;;;5074216;28;20438;-63
2020/12/20 05:43:04;;;;;;;7.72;5.28;;;10.30;99.90;;;;;;5070473;28;20094;-63
2020/12/20 05:45:32;;;;;;;6.75;4.93;;;10.30;99.90;;;;;;5054098;28;20477;-63
2020/12/20 05:48:13;;;;;;;7.90;5.38;;;10.50;99.90;;;;;;5053806;28;20121;-63
2020/12/20 05:50:39;;;;;;;6.68;5.30;;;10.40;99.90;;;;;;5063382;28;20086;-63
2020/12/20 05:53:06;;;;;;;7.68;5.30;;;10.30;99.90;;;;;;5073806;28;20049;-63
2020/12/20 05:55:40;;;;;;;6.57;4.93;;;10.20;99.90;;;;;;5073855;28;20090;-63
2020/12/20 05:58:15;;;;;;;7.63;4.93;;;10.40;99.90;;;;;;5065742;28;20076;-63
2020/12/20 06:00:44;;;;;;;7.82;5.07;;;10.30;99.90;;;;;;5053619;28;20045;-63
2020/12/20 06:03:12;;;;;;;8.95;5.35;;;10.40;99.90;;;;;;5053121;28;20076;-63
2020/12/20 06:05:40;;;;;;;6.40;5.00;;;10.40;99.90;;;;;;5053376;28;20087;-63
2020/12/20 06:08:09;;;;;;;7.53;5.22;;;10.50;99.90;;;;;;5053411;28;20087;-63
2020/12/20 06:10:38;;;;;;;6.05;4.85;;;10.40;99.90;;;;;;5053381;28;20485;-63
2020/12/20 06:13:07;;;;;;;8.00;5.40;;;10.40;99.90;;;;;;5054000;28;20055;-63
2020/12/20 06:15:40;;;;;;;6.68;5.18;;;10.30;99.90;;;;;;5053049;28;20084;-63
2020/12/20 06:18:12;;;;;;;8.45;5.65;;;10.40;99.90;;;;;;5053447;28;20475;-63
2020/12/20 06:20:56;;;;;;;7.97;5.82;;;10.50;99.90;;;;;;5053165;28;20059;-63
2020/12/20 06:23:24;;;;;;;7.78;6.00;;;10.30;99.90;;;;;;5071961;28;20048;-63
2020/12/20 06:25:52;;;;;;;7.88;5.78;;;10.30;99.90;;;;;;5073099;28;20527;-63
2020/12/20 06:28:21;;;;;;;7.10;5.18;;;10.20;99.90;;;;;;5072767;28;20453;-63
2020/12/20 06:30:50;;;;;;;6.90;5.38;;;10.20;99.90;;;;;;5073216;28;20541;-63
2020/12/20 06:33:25;;;;;;;7.60;5.73;;;10.20;99.90;;;;;;5072668;28;20040;-63
2020/12/20 06:35:52;;;;;;;6.93;5.28;;;10.20;99.90;;;;;;5072366;28;20056;-63
2020/12/20 06:38:23;;;;;;;7.38;5.38;;;10.10;99.90;;;;;;5053407;28;20048;-63
2020/12/20 06:40:50;;;;;;;6.80;5.65;;;10.10;99.90;;;;;;5053124;28;20084;-63
2020/12/20 06:43:28;;;;;;;7.88;5.78;;;10.10;99.90;;;;;;5052847;28;20477;-63
2020/12/20 06:45:55;;;;;;;8.02;6.18;;;10.20;99.90;;;;;;5052937;28;20048;-63
2020/12/20 06:48:32;;;;;;;7.03;5.53;;;10.10;99.90;;;;;;5052716;28;20095;-63
2020/12/20 06:51:01;;;;;;;7.72;5.70;;;10.10;99.90;;;;;;5059837;28;20379;-63
2020/12/20 06:53:51;;;;;;;8.07;6.18;;;10.00;99.90;;;;;;5052958;28;20379;-63
2020/12/20 06:56:20;;;;;;;7.75;5.93;;;9.90;99.90;;;;;;5052731;28;20139;-63
2020/12/20 06:58:47;;;;;;;7.10;5.85;;;9.90;99.90;;;;;;5052745;28;20386;-63
2020/12/20 07:01:34;;;;;;;7.88;6.45;;;9.90;99.90;;;;;;5052505;28;20049;-63
2020/12/20 07:04:01;;;;;;;7.60;6.18;;;9.80;99.90;;;;;;5052752;28;20450;-63
2020/12/20 07:06:28;;;;;;;9.10;6.22;;;9.80;99.90;;;;;;5053886;28;20492;-63
2020/12/20 07:08:57;;;;;;;9.98;7.25;;;9.90;99.90;;;;;;5052609;28;20486;-63
2020/12/20 07:11:25;;;;;;;9.02;7.00;;;9.80;99.90;;;;;;5052591;28;20578;-63
2020/12/20 07:13:54;;;;;;;8.38;6.47;;;9.90;99.90;;;;;;5053427;28;20390;-63
2020/12/20 07:16:22;;;;;;;8.60;6.97;;;9.80;99.90;;;;;;5052591;28;20053;-63
2020/12/20 07:18:58;;;;;;;7.95;6.68;;;9.90;99.90;;;;;;5052979;28;20147;-63
2020/12/20 07:21:46;;;;;;;9.07;6.75;;;9.90;99.90;;;;;;5052575;28;20053;-63
2020/12/20 07:24:17;;;;;;;8.15;7.03;;;9.90;99.90;;;;;;5052669;28;20480;-63
2020/12/20 07:26:44;;;;;;;8.23;7.22;;;10.00;99.90;;;;;;5052813;28;20089;-63
2020/12/20 07:29:11;;;;;;;9.13;7.43;;;10.10;99.90;;;;;;5053765;28;20045;-64
2020/12/20 07:31:38;;;;;;;8.75;7.28;;;10.20;99.90;;;;;;5052598;28;20098;-63
2020/12/20 07:34:06;;;;;;;9.38;6.47;;;10.20;99.90;;;;;;5052334;28;20045;-63
2020/12/20 07:36:34;;;;;;;9.50;7.13;;;10.10;99.90;;;;;;5052945;28;20059;-63
2020/12/20 07:39:01;;;;;;;9.13;6.95;;;10.30;99.90;;;;;;5051942;28;20075;-63
2020/12/20 07:41:28;;;;;;;9.57;7.18;;;10.40;99.90;;;;;;5052410;28;20048;-63
2020/12/20 07:43:55;;;;;;;8.38;6.93;;;10.40;99.90;;;;;;5052562;28;20077;-63
2020/12/20 07:46:22;;;;;;;8.95;7.75;;;10.50;99.90;;;;;;5052415;28;20052;-63
2020/12/20 07:48:50;;;;;;;9.60;7.70;;;10.60;99.90;;;;;;5052346;28;20076;-63
2020/12/20 07:51:19;;;;;;;9.30;7.40;;;10.60;99.90;;;;;;5067241;28;20098;-63
2020/12/20 07:53:48;;;;;;;10.03;7.97;;;10.60;99.90;;;;;;5076152;28;20052;-63
2020/12/20 07:56:22;;;;;;;9.70;7.47;;;10.50;99.90;;;;;;5075937;28;20504;-63
2020/12/20 07:58:50;;;;;;;10.20;7.47;;;10.60;99.90;;;;;;5065291;28;20459;-63
2020/12/20 08:01:16;;;;;;;9.18;7.40;;;10.70;99.90;;;;;;5055771;28;20084;-63
2020/12/20 08:03:43;;;;;;;9.15;7.80;;;10.70;99.90;;;;;;5055750;28;20080;-63
2020/12/20 08:06:11;;;;;;;9.27;8.00;;;10.70;99.90;;;;;;5057045;28;20049;-63
2020/12/20 08:08:38;;;;;;;10.95;8.02;;;10.70;99.90;;;;;;5070448;28;20045;-63
2020/12/20 08:11:17;;;;;;;10.90;8.35;;;10.70;99.90;;;;;;5055859;28;20099;-63
2020/12/20 08:13:54;;;;;;;10.18;7.90;;;10.60;99.90;;;;;;5055614;28;20524;-63
2020/12/20 08:16:25;;;;;;;10.23;7.40;;;10.40;99.90;;;;;;5055533;28;20175;-63
2020/12/20 08:18:58;;;;;;;9.45;7.45;;;10.40;99.90;;;;;;5055458;28;20417;-63
2020/12/20 08:21:39;;;;;;;9.18;7.60;;;10.30;99.90;;;;;;5055576;28;20049;-63
2020/12/20 08:24:06;;;;;;;9.48;7.30;;;10.40;99.90;;;;;;5056596;28;20448;-63
2020/12/20 08:26:34;;;;;;;9.13;7.38;;;10.50;99.90;;;;;;5055934;28;20482;-63
2020/12/20 08:29:01;;;;;;;11.45;7.03;;;10.60;99.90;;;;;;5055560;28;20138;-63
2020/12/20 08:31:29;;;;;;;10.15;7.63;;;10.60;99.90;;;;;;5055443;28;20053;-63
2020/12/20 08:33:56;;;;;;;9.70;7.00;;;10.50;99.90;;;;;;5055274;28;20429;-63
2020/12/20 08:36:23;;;;;;;8.98;7.32;;;10.30;99.90;;;;;;5057824;28;20098;-63
2020/12/20 08:38:50;;;;;;;8.73;6.65;;;10.40;99.90;;;;;;5070341;28;20053;-63
2020/12/20 08:41:21;;;;;;;11.30;7.25;;;10.40;99.90;;;;;;5075358;28;20056;-63
2020/12/20 08:44:00;;;;;;;10.43;7.45;;;10.60;99.90;;;;;;5063152;28;20080;-63
2020/12/20 08:46:29;;;;;;;9.30;7.20;;;10.60;99.90;;;;;;5056968;28;20051;-63
2020/12/20 08:49:13;;;;;;;9.70;8.07;;;10.80;99.90;;;;;;5066366;28;20068;-63
2020/12/20 08:51:40;;;;;;;9.40;7.25;;;11.00;99.90;;;;;;5073120;28;20052;-63
2020/12/20 08:54:06;;;;;;;8.15;6.65;;;11.20;99.90;;;;;;5074928;28;20060;-63
2020/12/20 08:56:33;;;;;;;8.73;6.72;;;11.10;99.90;;;;;;5075039;28;20045;-63
2020/12/20 08:59:00;;;;;;;8.48;6.93;;;11.30;99.90;;;;;;5075245;28;20106;-62
2020/12/20 09:01:41;;;;;;;7.18;6.43;;;11.20;99.90;;;;;;5071000;28;20498;-63
2020/12/20 09:04:10;;;;;;;9.93;7.25;;;11.50;99.90;;;;;;5054682;28;20127;-63
2020/12/20 09:06:37;;;;;;;8.65;7.20;;;11.50;99.90;;;;;;5071404;28;20508;-63
2020/12/20 09:09:04;;;;;;;9.00;6.47;;;11.50;99.90;;;;;;5074967;28;20436;-63
2020/12/20 09:11:30;;;;;;;9.63;6.60;;;11.50;99.90;;;;;;5055290;28;20053;-64
2020/12/20 09:14:08;;;;;;;9.35;6.80;;;11.30;99.90;;;;;;5052327;28;20056;-63
2020/12/20 09:16:41;;;;;;;9.38;6.53;;;11.30;99.90;;;;;;5052582;28;20501;-63
2020/12/20 09:19:10;;;;;;;7.88;6.20;;;11.20;99.90;;;;;;5052400;28;20055;-63
2020/12/20 09:21:37;;;;;;;8.38;6.45;;;11.20;99.90;;;;;;5062397;28;20052;-63
2020/12/20 09:24:03;;;;;;;8.35;6.38;;;11.30;99.90;;;;;;5057931;28;20044;-63
2020/12/20 09:26:30;;;;;;;8.73;6.03;;;11.40;99.90;;;;;;5068814;28;20080;-63
2020/12/20 09:28:56;;;;;;;7.53;5.70;;;12.00;99.90;;;;;;5060509;28;20122;-65
2020/12/20 09:31:27;;;;;;;7.80;6.07;;;12.40;99.90;;;;;;5055717;28;20482;-65
2020/12/20 09:34:00;;;;;;;6.78;5.57;;;12.40;99.90;;;;;;5054805;28;20110;-66
2020/12/20 09:36:27;;;;;;;8.02;6.55;;;12.00;99.90;;;;;;5056371;28;20083;-66
2020/12/20 09:38:55;;;;;;;7.35;5.55;;;12.20;99.90;;;;;;5059114;28;20136;-66
2020/12/20 09:41:24;;;;;;;7.53;5.72;;;12.10;99.90;;;;;;5063943;28;20072;-66
2020/12/20 09:43:52;;;;;;;7.07;4.72;;;12.00;99.90;;;;;;5069243;28;20079;-66
2020/12/20 09:46:20;;;;;;;7.82;6.35;;;12.30;99.90;;;;;;5056472;28;20052;-66
2020/12/20 09:48:48;;;;;;;8.13;6.25;;;12.80;99.90;;;;;;5064962;28;20087;-66
2020/12/20 09:51:15;;;;;;;7.97;6.15;;;13.80;99.90;;;;;;5068694;28;20052;-66
2020/12/20 09:53:41;;;;;;;7.80;5.30;;;14.30;99.90;;;;;;5058663;28;20041;-66
2020/12/20 09:56:08;;;;;;;6.70;5.40;;;14.20;99.90;;;;;;5054864;28;20083;-66
2020/12/20 09:58:35;;;;;;;9.15;5.55;;;14.40;99.90;;;;;;5065322;28;20059;-66
2020/12/20 10:01:02;;;;;;;6.10;5.00;;;14.20;99.90;;;;;;5065729;28;20405;-67
2020/12/20 10:03:28;;;;;;;5.82;4.93;;;14.00;99.90;;;;;;5069141;28;20060;-66
2020/12/20 10:06:00;;;;;;;7.35;5.72;;;13.30;99.90;;;;;;5072377;28;20102;-66
2020/12/20 10:08:27;;;;;;;7.53;5.70;;;13.40;99.90;;;;;;5069782;28;20125;-66
2020/12/20 10:10:55;;;;;;;7.43;5.20;;;13.10;99.90;;;;;;5071889;28;20056;-66
2020/12/20 10:13:22;;;;;;;6.82;4.95;;;12.90;99.90;;;;;;5064369;28;20445;-66
2020/12/20 10:15:49;;;;;;;7.47;5.40;;;12.50;99.90;;;;;;5064685;28;20044;-66
2020/12/20 10:18:16;;;;;;;6.18;5.03;;;12.50;99.90;;;;;;5063990;28;20500;-66
2020/12/20 10:20:43;;;;;;;7.35;5.57;;;12.50;99.90;;;;;;5070090;28;20477;-66
2020/12/20 10:23:11;;;;;;;9.27;5.72;;;12.40;99.90;;;;;;5069384;28;20071;-66
2020/12/20 10:25:40;;;;;;;7.43;5.22;;;12.40;99.90;;;;;;5073158;28;20045;-66
2020/12/20 10:28:07;;;;;;;7.53;5.90;;;12.30;99.90;;;;;;5073545;28;20571;-66
2020/12/20 10:30:33;;;;;;;6.78;5.30;;;12.40;99.90;;;;;;5072998;28;20053;-66
2020/12/20 10:33:00;;;;;;;8.20;5.47;;;12.70;99.90;;;;;;5073135;28;20091;-66
2020/12/20 10:35:27;;;;;;;8.57;6.70;;;13.70;99.90;;;;;;5068933;28;20065;-66
2020/12/20 10:37:54;;;;;;;6.47;4.65;;;14.40;99.90;;;;;;5068226;28;20140;-66
2020/12/20 10:40:22;;;;;;;6.35;5.38;;;14.50;99.90;;;;;;5055472;28;20059;-66
2020/12/20 10:42:52;;;;;;;9.70;6.50;;;14.60;99.90;;;;;;5053361;28;20048;-66
2020/12/20 10:45:19;;;;;;;6.82;5.45;;;15.00;99.90;;;;;;5053205;28;20059;-66
2020/12/20 10:47:45;;;;;;;5.45;4.13;;;14.80;99.90;;;;;;5053017;28;20061;-66
2020/12/20 10:50:13;;;;;;;6.95;4.75;;;14.60;99.90;;;;;;5059781;28;20040;-66
2020/12/20 10:52:39;;;;;;;5.97;4.15;;;14.90;99.90;;;;;;5072850;28;20048;-67
2020/12/20 10:55:07;;;;;;;8.82;6.55;;;15.10;99.90;;;;;;5072786;28;20087;-66
2020/12/20 10:57:38;;;;;;;7.15;5.97;;;15.00;99.90;;;;;;5073313;28;20049;-66
2020/12/20 11:00:05;;;;;;;7.10;5.22;;;15.20;99.90;;;;;;5064928;28;20101;-66
2020/12/20 11:02:32;;;;;;;7.00;6.30;;;15.80;99.90;;;;;;5070367;28;20086;-66
2020/12/20 11:04:59;;;;;;;8.00;7.13;;;16.40;99.90;;;;;;5064691;28;20044;-66
2020/12/20 11:07:26;;;;;;;6.70;3.92;;;16.70;99.90;;;;;;5060410;28;20061;-66
2020/12/20 11:09:52;;;;;;;10.10;5.97;;;16.30;99.90;;;;;;5062856;28;20049;-66
2020/12/20 11:12:19;;;;;;;8.15;5.47;;;16.30;99.90;;;;;;5067847;28;20117;-66
2020/12/20 11:14:47;;;;;;;6.13;3.63;;;16.70;99.90;;;;;;5057078;28;20044;-66
2020/12/20 11:17:13;;;;;;;7.70;3.70;;;16.30;99.90;;;;;;5056150;28;20045;-66
2020/12/20 11:19:40;;;;;;;4.68;3.20;;;15.80;99.90;;;;;;5063489;28;20048;-66
2020/12/20 11:22:06;;;;;;;6.85;3.85;;;15.30;99.90;;;;;;5064237;28;20126;-66
2020/12/20 11:24:33;;;;;;;7.63;3.60;;;15.30;99.90;;;;;;5072597;28;20449;-66
2020/12/20 11:26:59;;;;;;;6.80;3.63;;;14.70;99.90;;;;;;5074314;28;20060;-66
2020/12/20 11:29:26;;;;;;;4.78;2.80;;;14.10;99.90;;;;;;5076479;28;20090;-66
2020/12/20 11:31:56;;;;;;;5.30;3.35;;;13.90;99.90;;;;;;5060621;28;20049;-66
2020/12/20 11:34:23;;;;;;;6.65;3.38;;;13.80;99.90;;;;;;5056015;28;20053;-66
2020/12/20 11:36:50;;;;;;;5.32;3.50;;;13.40;99.90;;;;;;5056458;28;20083;-66
2020/12/20 11:39:22;;;;;;;5.85;3.35;;;13.30;99.90;;;;;;5056473;28;20129;-66
2020/12/20 11:41:49;;;;;;;5.85;3.25;;;13.30;99.90;;;;;;5056236;28;20049;-66
2020/12/20 11:44:16;;;;;;;7.68;3.40;;;13.10;99.90;;;;;;5056558;28;20445;-66
2020/12/20 11:46:42;;;;;;;6.82;3.22;;;12.80;99.90;;;;;;5072108;28;20052;-66
2020/12/20 11:49:12;;;;;;;6.13;3.17;;;12.70;99.90;;;;;;5075826;28;20469;-66
2020/12/20 11:51:38;;;;;;;;;;;12.70;99.90;;;;;;5058626;28;20064;-66
2020/12/20 11:54:07;;;;;;;6.07;3.35;;;12.90;99.90;;;;;;5056385;28;19966;-66
2020/12/20 11:56:34;;;;;;;5.95;3.47;;;12.90;99.90;;;;;;5056341;28;20103;-66
2020/12/20 11:59:01;;;;;;;4.65;3.08;;;12.70;99.90;;;;;;5056116;28;20048;-66
2020/12/20 12:01:29;;;;;;;5.90;3.47;;;12.60;99.90;;;;;;5056225;28;20084;-66
2020/12/20 12:03:55;;;;;;;6.00;3.13;;;12.50;99.90;;;;;;5056269;28;20053;-66
2020/12/20 12:06:23;;;;;;;8.68;3.47;;;12.60;99.90;;;;;;5056201;28;20076;-66
2020/12/20 12:08:49;;;;;;;7.63;4.10;;;12.80;99.90;;;;;;5056271;28;20053;-65
2020/12/20 12:11:19;;;;;;;8.38;3.95;;;12.80;99.90;;;;;;5055977;28;20045;-66
2020/12/20 12:13:46;;;;;;;;;;;12.90;99.90;;;;;;5056364;28;20052;-66
2020/12/20 12:16:15;;;;;;;5.60;3.10;;;12.60;99.90;;;;;;5056076;28;19924;-66
2020/12/20 12:18:44;;;;;;;8.48;3.92;;;12.80;99.90;;;;;;5055848;28;20045;-66
2020/12/20 12:21:15;;;;;;;8.30;4.20;;;12.90;99.90;;;;;;5055832;28;20051;-66
2020/12/20 12:23:43;;;;;;;6.85;3.30;;;12.70;99.90;;;;;;5055334;28;20506;-66
2020/12/20 12:26:10;;;;;;;9.15;3.58;;;12.80;99.90;;;;;;5055867;28;20494;-66
2020/12/20 12:28:36;;;;;;;9.15;3.42;;;12.70;99.90;;;;;;5060108;28;20485;-66
2020/12/20 12:31:05;;;;;;;6.95;3.90;;;12.70;99.90;;;;;;5075934;28;20090;-65
2020/12/20 12:33:32;;;;;;;6.78;3.30;;;12.70;99.90;;;;;;5075016;28;20127;-66
2020/12/20 12:35:58;;;;;;;4.85;3.60;;;12.60;99.90;;;;;;5035527;28;20049;-66
2020/12/20 12:38:25;;;;;;;7.35;3.85;;;12.50;99.90;;;;;;5034724;28;20053;-66
2020/12/20 12:40:53;;;;;;;8.52;3.85;;;12.60;99.90;;;;;;5023340;28;20050;-66
2020/12/20 12:43:19;;;;;;;7.03;3.75;;;12.70;99.90;;;;;;5015343;28;20061;-66
2020/12/20 12:45:46;;;;;;;7.88;3.78;;;12.70;99.90;;;;;;5015443;28;20061;-66
2020/12/20 12:48:13;;;;;;;6.03;3.40;;;12.70;99.90;;;;;;5015576;28;20073;-66
2020/12/20 12:50:39;;;;;;;7.57;3.15;;;12.80;99.90;;;;;;5025362;28;20060;-66
2020/12/20 12:53:05;;;;;;;7.97;3.10;;;12.70;99.90;;;;;;5035048;28;20060;-66